ESMK/KID METAR and TAF weather

Enter ICAO airport designator
Station Type Date Time Source
ESMK METAR 2019/12/11 17:20 UTC NOAA

ESMK 111720Z 16004KT 9000 -DZ BKN008 05/04 Q1005


Station Type Date Time Source
ESMK Decoded METAR 2019/12/11 17:20 UTC NOAA

Kristianstad / Everod, Sweden (ESMK) 55-55N 014-05E
Dec 11, 2019 - 12:20 PM EST / 2019.12.11 1720 UTC
Wind: from the SSE (160 degrees) at 5 MPH (4 KT):0
Visibility: 5 mile(s):0
Sky conditions: mostly cloudy
Weather: light drizzle
Temperature: 41 F (5 C)
Dew Point: 39 F (4 C)
Relative Humidity: 93%
Pressure (altimeter): 29.68 in. Hg (1005 hPa)
ob: ESMK 111720Z 16004KT 9000 -DZ BKN008 05/04 Q1005
cycle: 17

Station Type Date Time Source
ESMK TAF 2015/03/18 12:33 UTC NOAA

TAF ESMK 181130Z 1812/1824 13012KT CAVOK

Example: see airport list